createdAt,value
2022-12-16T00:00:20.728Z,36.03
2022-12-16T00:02:55.525Z,48.80
2022-12-16T00:05:30.855Z,49.92
2022-12-16T00:08:31.727Z,37.30
2022-12-16T00:11:10.449Z,49.40
2022-12-16T00:13:46.700Z,49.80
2022-12-16T00:16:19.613Z,48.92
2022-12-16T00:19:01.650Z,51.33
2022-12-16T00:21:33.520Z,51.05
2022-12-16T00:24:17.393Z,37.20
2022-12-16T00:26:59.702Z,36.93
2022-12-16T00:29:38.681Z,37.10
2022-12-16T00:32:12.902Z,35.97
2022-12-16T00:34:48.574Z,49.88
2022-12-16T00:37:22.480Z,38.93
2022-12-16T00:39:53.876Z,37.73
2022-12-16T00:42:26.198Z,52.20
2022-12-16T00:44:58.376Z,52.83
2022-12-16T00:47:38.556Z,54.03
2022-12-16T00:50:14.022Z,42.90
2022-12-16T00:52:55.432Z,41.03
2022-12-16T00:55:39.256Z,50.80
2022-12-16T00:58:21.135Z,52.00
2022-12-16T01:00:56.269Z,51.42
2022-12-16T01:03:27.497Z,41.10
2022-12-16T01:06:03.095Z,51.47
2022-12-16T01:08:36.144Z,39.93
2022-12-16T01:11:15.732Z,53.20
2022-12-16T01:13:50.795Z,50.40
2022-12-16T01:16:23.961Z,47.42
2022-12-16T01:18:56.664Z,51.10
2022-12-16T01:21:32.604Z,51.58
2022-12-16T01:24:06.085Z,38.23
2022-12-16T01:26:42.218Z,40.63
2022-12-16T01:29:19.497Z,49.85
2022-12-16T01:32:12.381Z,42.80
2022-12-16T01:34:55.264Z,50.03
2022-12-16T01:37:35.677Z,47.75
2022-12-16T01:40:17.647Z,37.03
2022-12-16T01:42:54.642Z,49.92
2022-12-16T01:45:40.409Z,49.15
2022-12-16T01:48:31.292Z,50.85
2022-12-16T01:51:13.188Z,45.63
2022-12-16T01:53:56.080Z,49.67
2022-12-16T01:56:37.950Z,48.38
2022-12-16T01:59:13.792Z,37.70
2022-12-16T02:01:52.903Z,49.40
2022-12-16T02:04:36.730Z,35.37
2022-12-16T02:07:08.484Z,34.57
2022-12-16T02:09:38.266Z,48.63
2022-12-16T02:12:32.609Z,47.17
2022-12-16T02:15:38.073Z,43.55
2022-12-16T02:18:22.175Z,35.20
2022-12-16T02:21:44.138Z,46.95
2022-12-16T02:25:11.749Z,48.55
2022-12-16T02:28:09.122Z,49.13
2022-12-16T02:31:27.835Z,47.23
2022-12-16T02:34:22.559Z,45.28
2022-12-16T02:37:10.368Z,48.03
2022-12-16T02:39:48.276Z,45.90
2022-12-16T02:42:32.765Z,34.37
2022-12-16T02:45:13.816Z,43.67
2022-12-16T02:47:51.102Z,30.50
2022-12-16T02:50:25.686Z,31.77
2022-12-16T02:53:25.304Z,29.10
2022-12-16T02:56:42.636Z,38.83
2022-12-16T02:59:28.226Z,38.30
2022-12-16T03:02:10.362Z,36.22
2022-12-16T03:04:54.452Z,35.28
2022-12-16T03:07:33.177Z,38.20
2022-12-16T03:10:15.562Z,32.10
2022-12-16T03:12:49.325Z,26.30
2022-12-16T03:15:26.735Z,23.17
2022-12-16T03:18:01.098Z,23.27
2022-12-16T03:20:48.324Z,21.80
2022-12-16T03:23:25.094Z,21.40
2022-12-16T03:26:12.876Z,25.83
2022-12-16T03:29:00.574Z,23.63
2022-12-16T03:31:39.672Z,26.67
2022-12-16T03:34:21.716Z,19.83
2022-12-16T03:37:25.091Z,18.97
2022-12-16T03:39:59.914Z,24.90
2022-12-16T03:42:32.258Z,26.02
2022-12-16T03:45:05.723Z,28.45
2022-12-16T03:47:38.791Z,32.03
2022-12-16T03:50:18.123Z,26.40
2022-12-16T03:53:15.761Z,34.47
2022-12-16T03:55:54.555Z,26.30
2022-12-16T03:58:28.301Z,24.97
2022-12-16T04:01:02.587Z,25.20
2022-12-16T04:03:34.425Z,30.27
2022-12-16T04:06:04.631Z,31.23
2022-12-16T04:08:38.011Z,24.03
2022-12-16T04:11:25.888Z,22.63
2022-12-16T04:14:14.175Z,22.17
2022-12-16T04:17:08.545Z,21.93
2022-12-16T04:20:12.135Z,23.93
2022-12-16T04:23:14.602Z,31.40
2022-12-16T04:26:04.770Z,24.50
2022-12-16T04:28:40.852Z,26.00
2022-12-16T04:31:16.492Z,29.00
2022-12-16T04:34:03.215Z,31.30
2022-12-16T04:36:53.297Z,30.40
2022-12-16T04:39:49.812Z,24.70
2022-12-16T04:42:42.179Z,32.35
2022-12-16T04:45:31.131Z,34.03
2022-12-16T04:48:18.350Z,24.00
2022-12-16T04:51:09.544Z,24.33
2022-12-16T04:53:58.643Z,23.13
2022-12-16T04:56:47.834Z,32.88
2022-12-16T04:59:37.005Z,30.33
2022-12-16T05:02:26.947Z,25.07
2022-12-16T05:05:14.784Z,31.00
2022-12-16T05:08:03.356Z,33.25
2022-12-16T05:10:49.839Z,33.78
2022-12-16T05:13:39.785Z,26.50
2022-12-16T05:16:43.646Z,32.20
2022-12-16T05:19:32.328Z,34.43
2022-12-16T05:22:24.224Z,26.63
2022-12-16T05:25:19.520Z,34.75
2022-12-16T05:28:14.846Z,26.73
2022-12-16T05:31:07.884Z,26.70
2022-12-16T05:34:12.759Z,30.50
2022-12-16T05:37:03.924Z,32.17
2022-12-16T05:39:51.993Z,45.22
2022-12-16T05:42:40.562Z,33.43
2022-12-16T05:45:31.974Z,35.70
2022-12-16T05:48:23.281Z,52.08
2022-12-16T05:51:20.949Z,50.20
2022-12-16T05:54:14.246Z,55.00
2022-12-16T05:57:00.695Z,42.27
2022-12-16T05:59:49.085Z,54.90
2022-12-16T06:02:42.444Z,59.33
2022-12-16T06:05:34.334Z,60.83
2022-12-16T06:08:24.555Z,44.37
2022-12-16T06:11:13.202Z,62.00
2022-12-16T06:14:02.303Z,62.70
2022-12-16T06:16:54.079Z,46.90
2022-12-16T06:19:41.722Z,43.93
2022-12-16T06:22:28.713Z,47.50
2022-12-16T06:25:34.228Z,45.97
2022-12-16T06:28:31.576Z,45.63
2022-12-16T06:31:20.208Z,62.10
2022-12-16T06:34:11.790Z,60.93
2022-12-16T06:36:59.750Z,64.57
2022-12-16T06:39:52.772Z,47.37
2022-12-16T06:45:57.257Z,65.28
2022-12-16T06:48:46.084Z,65.47
2022-12-16T06:51:51.014Z,56.60
2022-12-16T06:54:43.757Z,46.87
2022-12-16T06:57:32.865Z,45.10
2022-12-16T07:00:26.769Z,64.57
2022-12-16T07:03:20.115Z,51.63
2022-12-16T07:06:12.892Z,66.20
2022-12-16T07:09:05.615Z,66.22
2022-12-16T07:11:59.768Z,62.97
2022-12-16T07:14:48.928Z,46.70
2022-12-16T07:17:44.638Z,62.35
2022-12-16T07:20:47.351Z,58.72
2022-12-16T07:23:39.827Z,55.80
2022-12-16T07:26:33.994Z,47.10
2022-12-16T07:29:25.643Z,47.87
2022-12-16T07:32:16.915Z,50.88
2022-12-16T07:35:37.464Z,52.50
2022-12-16T07:38:29.502Z,62.95
2022-12-16T07:41:23.275Z,69.82
2022-12-16T07:44:15.788Z,70.97
2022-12-16T07:47:06.369Z,49.70
2022-12-16T07:49:56.491Z,63.87
2022-12-16T07:52:45.719Z,68.25
2022-12-16T07:55:34.777Z,52.22
2022-12-16T07:58:23.872Z,61.22
2022-12-16T08:01:15.065Z,49.23
2022-12-16T08:04:03.491Z,65.00
2022-12-16T08:06:51.330Z,48.93
2022-12-16T08:09:42.962Z,49.13
2022-12-16T08:12:32.016Z,47.40
2022-12-16T08:15:19.412Z,46.40
2022-12-16T08:18:09.157Z,49.17
2022-12-16T08:20:58.291Z,47.77
2022-12-16T08:23:46.757Z,47.43
2022-12-16T08:26:40.586Z,48.67
2022-12-16T08:29:45.931Z,48.67
2022-12-16T08:32:44.507Z,48.37
2022-12-16T08:35:35.013Z,50.20
2022-12-16T08:38:24.063Z,51.13
2022-12-16T08:41:17.604Z,48.97
2022-12-16T08:44:23.904Z,51.60
2022-12-16T08:47:11.930Z,52.27
2022-12-16T08:53:05.710Z,50.80
2022-12-16T08:59:11.038Z,51.43
2022-12-16T09:01:59.387Z,55.07
2022-12-16T09:04:46.832Z,58.03
2022-12-16T09:07:39.038Z,54.23
2022-12-16T09:10:26.879Z,55.47
2022-12-16T09:13:38.165Z,54.83
2022-12-16T09:16:31.372Z,55.90
2022-12-16T09:19:19.890Z,56.17
2022-12-16T09:22:10.505Z,56.93
2022-12-16T09:24:57.888Z,52.73
2022-12-16T09:27:44.092Z,54.70
2022-12-16T09:30:36.349Z,59.40
2022-12-16T09:33:25.879Z,59.27
2022-12-16T09:36:16.035Z,59.30
2022-12-16T09:39:04.929Z,58.50
2022-12-16T09:42:03.760Z,56.60
2022-12-16T09:45:36.013Z,58.57
2022-12-16T09:48:44.949Z,55.53
2022-12-16T09:51:39.428Z,58.50
2022-12-16T09:54:59.088Z,56.80
2022-12-16T09:57:49.872Z,59.87
2022-12-16T10:00:44.972Z,56.10
2022-12-16T10:03:42.685Z,57.43
2022-12-16T10:06:49.975Z,57.43
2022-12-16T10:09:50.590Z,58.00
2022-12-16T10:13:04.877Z,55.93
2022-12-16T10:16:24.139Z,56.03
2022-12-16T10:19:25.920Z,53.77
2022-12-16T10:22:29.924Z,56.10
2022-12-16T10:25:29.071Z,55.60
2022-12-16T10:28:40.648Z,59.63
2022-12-16T10:31:40.446Z,57.87
2022-12-16T10:34:52.033Z,57.87
2022-12-16T10:37:54.924Z,52.83
2022-12-16T10:40:56.707Z,61.80
2022-12-16T10:44:01.984Z,79.67
2022-12-16T10:46:56.283Z,92.63
2022-12-16T10:50:11.154Z,85.77
2022-12-16T10:53:06.943Z,86.50
2022-12-16T10:56:21.647Z,78.87
2022-12-16T10:59:15.181Z,78.90
2022-12-16T11:02:29.639Z,74.57
2022-12-16T11:05:43.009Z,57.50
2022-12-16T11:08:46.958Z,56.80
2022-12-16T11:11:42.043Z,58.00
2022-12-16T11:15:05.383Z,57.30
2022-12-16T11:17:53.941Z,65.53
2022-12-16T11:20:46.375Z,68.47
2022-12-16T11:23:41.784Z,74.03
2022-12-16T11:26:41.243Z,74.60
2022-12-16T11:29:35.129Z,78.53
2022-12-16T11:32:33.862Z,67.13
2022-12-16T11:35:21.352Z,60.63
2022-12-16T11:39:05.370Z,55.77
2022-12-16T11:42:01.118Z,56.93
2022-12-16T11:45:00.388Z,56.20
2022-12-16T11:48:18.022Z,57.07
2022-12-16T11:51:19.090Z,52.47
2022-12-16T11:54:18.492Z,53.37
2022-12-16T11:57:09.399Z,54.00
2022-12-16T11:59:59.889Z,54.07
2022-12-16T12:02:55.196Z,56.20
2022-12-16T12:05:49.969Z,55.47
2022-12-16T12:08:45.810Z,57.07
2022-12-16T12:11:45.011Z,56.83
2022-12-16T12:14:48.557Z,60.03
2022-12-16T12:17:50.956Z,55.73
2022-12-16T12:21:08.495Z,57.07
2022-12-16T12:24:20.338Z,56.43
2022-12-16T12:27:22.339Z,57.00
2022-12-16T12:30:22.868Z,57.73
2022-12-16T12:33:29.124Z,58.33
2022-12-16T12:36:27.496Z,56.97
2022-12-16T12:39:35.836Z,59.70
2022-12-16T12:42:51.897Z,58.83
2022-12-16T12:46:09.906Z,61.27
2022-12-16T12:49:08.844Z,64.60
2022-12-16T12:52:20.362Z,62.27
2022-12-16T12:55:26.288Z,60.17
2022-12-16T12:58:29.212Z,59.90
2022-12-16T13:01:22.868Z,52.73
2022-12-16T13:04:21.720Z,57.77
2022-12-16T13:07:11.994Z,56.33
2022-12-16T13:12:52.429Z,59.30
2022-12-16T13:16:02.921Z,58.40
2022-12-16T13:18:57.965Z,58.07
2022-12-16T13:22:09.635Z,57.83
2022-12-16T13:25:03.004Z,54.90
2022-12-16T13:28:14.113Z,50.50
2022-12-16T13:31:25.883Z,53.57
2022-12-16T13:34:18.489Z,52.37
2022-12-16T13:37:17.853Z,57.03
2022-12-16T13:40:26.077Z,54.47
2022-12-16T13:43:18.193Z,50.70
2022-12-16T13:46:36.671Z,52.90
2022-12-16T13:50:05.612Z,51.43
2022-12-16T13:53:07.254Z,52.10
2022-12-16T13:56:15.509Z,52.57
2022-12-16T13:59:15.933Z,52.73
2022-12-16T14:02:14.580Z,50.83
2022-12-16T14:05:05.587Z,53.27
2022-12-16T14:07:59.188Z,52.97
2022-12-16T14:10:54.109Z,53.13
2022-12-16T14:13:50.647Z,56.10
2022-12-16T14:16:53.924Z,54.23
2022-12-16T14:20:01.292Z,53.83
2022-12-16T14:23:10.877Z,53.87
2022-12-16T14:26:06.691Z,54.07
2022-12-16T14:29:00.030Z,52.07
2022-12-16T14:31:54.817Z,52.70
2022-12-16T14:34:52.056Z,50.43
2022-12-16T14:37:53.604Z,55.07
2022-12-16T14:40:47.920Z,56.17
2022-12-16T14:46:49.673Z,58.00
2022-12-16T14:49:47.969Z,59.50
2022-12-16T14:52:45.958Z,59.57
2022-12-16T14:55:39.057Z,57.53
2022-12-16T14:58:34.890Z,61.53
2022-12-16T15:01:32.475Z,70.13
2022-12-16T15:04:33.094Z,55.23
2022-12-16T15:07:38.869Z,56.93
2022-12-16T15:14:03.706Z,51.13
2022-12-16T15:16:57.328Z,53.77
2022-12-16T15:19:49.292Z,52.23
2022-12-16T15:22:37.313Z,53.07
2022-12-16T15:25:40.198Z,53.53
2022-12-16T15:28:44.197Z,56.20
2022-12-16T15:31:45.307Z,50.77
2022-12-16T15:34:50.222Z,51.83
2022-12-16T15:37:45.055Z,78.95
2022-12-16T15:40:46.843Z,76.82
2022-12-16T15:43:47.127Z,76.95
2022-12-16T15:46:42.641Z,66.72
2022-12-16T15:49:42.193Z,56.58
2022-12-16T15:52:57.155Z,77.07
2022-12-16T15:55:52.007Z,80.30
2022-12-16T15:59:04.585Z,72.18
2022-12-16T16:02:04.762Z,57.80
2022-12-16T16:04:53.762Z,79.20
2022-12-16T16:07:48.361Z,81.53
2022-12-16T16:10:44.067Z,81.40
2022-12-16T16:13:33.950Z,58.13
2022-12-16T16:16:22.816Z,53.60
2022-12-16T16:19:10.576Z,63.83
2022-12-16T16:21:56.914Z,70.55
2022-12-16T16:24:44.238Z,75.97
2022-12-16T16:30:44.175Z,56.20
2022-12-16T16:33:34.890Z,76.80
2022-12-16T16:36:33.375Z,51.67
2022-12-16T16:39:31.396Z,76.15
2022-12-16T16:43:18.607Z,77.82
2022-12-16T16:46:14.306Z,47.57
2022-12-16T16:49:05.729Z,48.53
2022-12-16T16:51:54.996Z,67.45
2022-12-16T16:54:45.780Z,72.57
2022-12-16T16:57:36.332Z,76.13
2022-12-16T17:00:26.756Z,76.25
2022-12-16T17:03:33.028Z,72.80
2022-12-16T17:06:24.713Z,72.85
2022-12-16T17:09:12.590Z,53.33
2022-12-16T17:12:01.620Z,56.63
2022-12-16T17:14:53.045Z,63.70
2022-12-16T17:17:39.525Z,71.20
2022-12-16T17:20:41.023Z,72.43
2022-12-16T17:23:30.448Z,70.87
2022-12-16T17:26:18.041Z,72.28
2022-12-16T17:29:07.917Z,72.20
2022-12-16T17:31:56.889Z,51.37
2022-12-16T17:34:45.231Z,62.90
2022-12-16T17:37:41.583Z,71.15
2022-12-16T17:40:32.817Z,68.07
2022-12-16T17:43:25.569Z,48.83
2022-12-16T17:46:23.051Z,61.37
2022-12-16T17:49:12.133Z,48.17
2022-12-16T17:52:03.000Z,70.50
2022-12-16T17:54:53.076Z,72.40
2022-12-16T17:57:42.318Z,67.97
2022-12-16T18:00:33.478Z,51.33
2022-12-16T18:03:23.653Z,65.20
2022-12-16T18:06:27.740Z,67.43
2022-12-16T18:09:17.186Z,46.27
2022-12-16T18:12:09.007Z,46.07
2022-12-16T18:15:16.791Z,45.57
2022-12-16T18:18:09.076Z,66.15
2022-12-16T18:20:57.243Z,79.70
2022-12-16T18:23:50.293Z,82.40
2022-12-16T18:26:38.406Z,50.30
2022-12-16T18:29:33.534Z,70.00
2022-12-16T18:36:44.193Z,46.30
2022-12-16T18:39:36.966Z,74.43
2022-12-16T18:42:34.455Z,52.43
2022-12-16T18:45:26.710Z,46.90
2022-12-16T18:48:16.647Z,68.93
2022-12-16T18:51:22.131Z,80.18
2022-12-16T18:54:22.986Z,76.22
2022-12-16T18:57:19.006Z,85.20
2022-12-16T19:00:12.179Z,89.95
2022-12-16T19:03:06.927Z,48.87
2022-12-16T19:05:55.409Z,78.55
2022-12-16T19:08:45.450Z,52.20
2022-12-16T19:11:39.857Z,75.60
2022-12-16T19:14:31.680Z,73.05
2022-12-16T19:17:23.188Z,68.70
2022-12-16T19:20:22.527Z,88.57
2022-12-16T19:23:12.773Z,61.00
2022-12-16T19:26:01.078Z,65.40
2022-12-16T19:28:50.089Z,50.20
2022-12-16T19:31:42.854Z,64.80
2022-12-16T19:34:30.284Z,66.40
2022-12-16T19:37:46.434Z,49.17
2022-12-16T19:40:36.412Z,77.88
2022-12-16T19:43:24.782Z,78.73
2022-12-16T19:46:17.289Z,47.73
2022-12-16T19:49:10.552Z,38.53
2022-12-16T19:52:00.076Z,65.90
2022-12-16T19:54:47.510Z,51.70
2022-12-16T19:57:35.222Z,43.57
2022-12-16T20:00:34.666Z,59.67
2022-12-16T20:03:27.527Z,86.93
2022-12-16T20:06:36.856Z,44.27
2022-12-16T20:09:27.533Z,38.60
2022-12-16T20:12:19.464Z,40.83
2022-12-16T20:15:09.244Z,43.40
2022-12-16T20:17:58.187Z,47.33
2022-12-16T20:21:00.240Z,45.87
2022-12-16T20:23:48.767Z,75.32
2022-12-16T20:26:44.136Z,56.43
2022-12-16T20:29:38.106Z,51.43
2022-12-16T20:32:26.899Z,62.83
2022-12-16T20:35:18.928Z,46.37
2022-12-16T20:38:12.262Z,42.83
2022-12-16T20:41:04.095Z,72.78
2022-12-16T20:43:55.319Z,46.57
2022-12-16T20:46:51.790Z,57.30
2022-12-16T20:49:42.855Z,50.90
2022-12-16T20:52:29.988Z,44.63
2022-12-16T20:55:23.033Z,73.07
2022-12-16T20:58:15.011Z,48.33
2022-12-16T21:01:04.581Z,70.53
2022-12-16T21:03:58.147Z,74.63
2022-12-16T21:06:49.584Z,44.90
2022-12-16T21:09:38.287Z,42.83
2022-12-16T21:12:31.450Z,71.65
2022-12-16T21:15:23.904Z,44.40
2022-12-16T21:18:13.557Z,63.55
2022-12-16T21:21:16.223Z,46.85
2022-12-16T21:24:24.762Z,67.53
2022-12-16T21:27:13.114Z,64.50
2022-12-16T21:30:03.818Z,59.03
2022-12-16T21:36:00.245Z,72.53
2022-12-16T21:38:56.132Z,51.17
2022-12-16T21:41:49.118Z,75.53
2022-12-16T21:44:44.382Z,69.68
2022-12-16T21:47:32.994Z,47.40
2022-12-16T21:50:33.841Z,72.15
2022-12-16T21:53:25.181Z,62.80
2022-12-16T21:56:22.141Z,58.00
2022-12-16T21:59:19.250Z,68.38
2022-12-16T22:02:11.442Z,70.78
2022-12-16T22:05:00.143Z,70.00
2022-12-16T22:07:50.536Z,65.30
2022-12-16T22:10:41.170Z,42.37
2022-12-16T22:13:39.987Z,37.83
2022-12-16T22:16:35.587Z,36.80
2022-12-16T22:19:26.808Z,36.37
2022-12-16T22:22:15.105Z,40.37
2022-12-16T22:25:03.152Z,36.60
2022-12-16T22:28:01.659Z,36.47
2022-12-16T22:31:05.492Z,34.23
2022-12-16T22:34:02.394Z,39.90
2022-12-16T22:36:52.777Z,40.13
2022-12-16T22:39:46.749Z,35.57
2022-12-16T22:42:40.252Z,37.67
2022-12-16T22:45:31.336Z,39.00
2022-12-16T22:48:34.420Z,36.60
2022-12-16T22:51:22.928Z,37.17
2022-12-16T22:54:12.292Z,36.27
2022-12-16T22:56:59.477Z,41.73
2022-12-16T22:59:49.311Z,32.03
2022-12-16T23:02:39.243Z,35.33
2022-12-16T23:05:33.675Z,31.93
2022-12-16T23:08:31.640Z,34.53
2022-12-16T23:11:22.944Z,36.30
2022-12-16T23:14:13.629Z,30.17
2022-12-16T23:17:04.949Z,33.57
2022-12-16T23:19:56.633Z,35.07
2022-12-16T23:22:50.213Z,36.47
2022-12-16T23:25:42.361Z,35.77
2022-12-16T23:28:29.145Z,32.60
2022-12-16T23:31:19.144Z,37.60
2022-12-16T23:34:12.799Z,39.73
2022-12-16T23:37:02.487Z,35.50
2022-12-16T23:42:56.288Z,39.40
2022-12-16T23:45:44.908Z,37.33
2022-12-16T23:48:33.188Z,39.63
2022-12-16T23:51:24.738Z,38.50
2022-12-16T23:54:14.548Z,42.87
2022-12-16T23:57:06.098Z,38.47
2022-12-16T23:59:54.273Z,40.50
